Time;durP1;ratioP1;P1;durP2;ratioP2;P2;SDS_P1;SDS_P2;PMS_P1;PMS_P2;Temp;Humidity;BMP_temperature;BMP_pressure;BME280_temperature;BME280_humidity;BME280_pressure;Samples;Min_cycle;Max_cycle;Signal;HPM_P1;HPM_P2
2024/04/14 00:01:30;;;;;;;18.50;11.60;;;;;;;13.11;72.33;101021.16;108791;1260;76639;-63
2024/04/14 00:03:57;;;;;;;17.00;10.10;;;;;;;13.14;72.39;101015.58;108820;1260;60118;-63
2024/04/14 00:06:24;;;;;;;14.30;8.80;;;;;;;13.17;72.42;101008.23;108698;1259;139099;-63
2024/04/14 00:08:50;;;;;;;12.30;8.40;;;;;;;13.22;72.55;100999.52;108714;1259;59952;-63
2024/04/14 00:11:17;;;;;;;15.30;9.00;;;;;;;13.29;72.56;100992.08;108714;1260;140207;-63
2024/04/14 00:13:43;;;;;;;18.30;10.40;;;;;;;13.36;72.40;100989.05;108780;1260;74687;-63
2024/04/14 00:16:12;;;;;;;15.80;10.20;;;;;;;13.42;72.32;100975.21;108797;1261;64757;-63
2024/04/14 00:18:38;;;;;;;15.30;8.70;;;;;;;13.46;72.27;100969.82;108666;1261;139929;-63
2024/04/14 00:21:05;;;;;;;12.30;8.20;;;;;;;13.49;72.21;100960.70;108718;1260;60724;-63
2024/04/14 00:23:31;;;;;;;12.30;7.80;;;;;;;13.52;72.16;100947.70;108757;1260;139311;-62
2024/04/14 00:25:58;;;;;;;13.20;8.90;;;;;;;13.54;72.00;100942.64;108798;1260;75627;-62
2024/04/14 00:28:25;;;;;;;12.80;8.10;;;;;;;13.57;72.06;100941.98;108845;1260;66449;-63
2024/04/14 00:30:51;;;;;;;11.60;7.90;;;;;;;13.59;72.01;100934.27;108632;1260;138150;-63
2024/04/14 00:33:18;;;;;;;11.50;7.40;;;;;;;13.59;71.91;100924.20;108754;1260;59990;-64
2024/04/14 00:35:44;;;;;;;11.40;8.40;;;;;;;13.57;71.84;100910.77;108616;1260;138234;-63
2024/04/14 00:38:11;;;;;;;12.00;8.40;;;;;;;13.54;71.80;100899.07;108785;1260;75668;-64
2024/04/14 00:40:37;;;;;;;12.60;7.80;;;;;;;13.51;71.84;100894.63;108665;1260;138924;-64
2024/04/14 00:43:04;;;;;;;17.60;10.10;;;;;;;13.49;71.82;100892.48;108685;1260;74222;-63
2024/04/14 00:45:30;;;;;;;17.90;10.90;;;;;;;13.44;71.74;100893.29;108793;1260;60208;-63
2024/04/14 00:47:57;;;;;;;19.10;10.20;;;;;;;13.39;71.82;100893.40;108610;1260;139378;-62
2024/04/14 00:50:24;;;;;;;17.40;11.30;;;;;;;13.34;71.80;100886.27;108751;1260;75293;-63
2024/04/14 00:52:50;;;;;;;49.10;31.90;;;;;;;13.31;71.88;100881.45;108625;1260;139272;-62
2024/04/14 00:55:17;;;;;;;23.70;14.90;;;;;;;13.28;71.88;100878.73;108736;1260;72852;-62
2024/04/14 00:57:44;;;;;;;18.60;10.40;;;;;;;13.25;71.93;100870.75;108675;1260;60081;-62
2024/04/14 01:00:11;;;;;;;15.10;9.40;;;;;;;13.21;72.02;100864.34;108481;1260;139598;-62
2024/04/14 01:02:38;;;;;;;17.90;8.70;;;;;;;13.19;72.12;100867.48;108820;1260;73693;-62
2024/04/14 01:05:05;;;;;;;14.70;9.00;;;;;;;13.17;72.10;100864.98;108698;1260;139336;-62
2024/04/14 01:07:31;;;;;;;32.80;21.00;;;;;;;13.16;72.12;100859.15;108699;1260;73098;-62
2024/04/14 01:09:58;;;;;;;27.40;17.60;;;;;;;13.16;72.16;100853.68;108681;1262;59763;-62
2024/04/14 01:12:24;;;;;;;17.40;10.30;;;;;;;13.16;72.14;100843.99;108601;1266;139202;-62
2024/04/14 01:14:51;;;;;;;19.40;9.80;;;;;;;13.16;72.21;100836.95;108787;1260;75464;-63
2024/04/14 01:17:18;;;;;;;18.00;9.70;;;;;;;13.16;72.23;100838.71;108622;1260;139068;-63
2024/04/14 01:19:44;;;;;;;17.40;10.70;;;;;;;13.17;72.31;100831.33;108653;1263;73594;-63
2024/04/14 01:22:11;;;;;;;13.60;10.50;;;;;;;13.19;72.36;100820.27;108795;1260;59679;-63
2024/04/14 01:24:37;;;;;;;13.50;11.30;;;;;;;13.23;72.35;100804.45;108683;1260;138397;-63
2024/04/14 01:27:04;;;;;;;17.30;11.30;;;;;;;13.26;72.25;100797.63;108779;1260;75236;-63
2024/04/14 01:29:31;;;;;;;19.50;11.40;;;;;;;13.27;72.20;100797.10;108740;1260;139789;-63
2024/04/14 01:31:57;;;;;;;16.80;11.60;;;;;;;13.27;72.30;100786.37;108788;1260;73957;-63
2024/04/14 01:34:24;;;;;;;18.50;10.10;;;;;;;13.28;72.25;100775.27;108694;1262;59716;-63
2024/04/14 01:36:51;;;;;;;15.80;10.20;;;;;;;13.30;72.19;100774.27;108667;1260;139812;-63
2024/04/14 01:39:17;;;;;;;14.90;10.50;;;;;;;13.31;72.25;100780.82;108760;1261;76546;-63
2024/04/14 01:41:44;;;;;;;15.10;9.40;;;;;;;13.31;72.14;100773.95;108703;1264;139873;-63
2024/04/14 01:44:10;;;;;;;17.30;9.90;;;;;;;13.32;72.22;100766.55;108772;1260;71901;-63
2024/04/14 01:46:37;;;;;;;10.60;9.10;;;;;;;13.33;72.17;100757.41;108606;1260;138947;-63
2024/04/14 01:49:04;;;;;;;11.00;8.50;;;;;;;13.34;72.21;100753.70;108814;1260;61367;-63
2024/04/14 01:51:30;;;;;;;15.10;9.30;;;;;;;13.35;72.19;100752.14;108788;1260;75617;-63
2024/04/14 01:53:57;;;;;;;12.70;9.10;;;;;;;13.37;72.18;100736.30;108742;1264;138981;-64
2024/04/14 01:56:24;;;;;;;12.40;8.40;;;;;;;13.38;72.21;100725.05;108805;1260;70741;-63
2024/04/14 01:58:50;;;;;;;11.70;7.50;;;;;;;13.39;72.22;100712.19;108633;1260;138354;-63
2024/04/14 02:01:17;;;;;;;11.40;8.50;;;;;;;13.40;72.14;100699.33;108789;1260;61190;-63
2024/04/14 02:03:43;;;;;;;10.20;7.80;;;;;;;13.43;72.26;100681.57;108753;1260;74333;-63
2024/04/14 02:06:10;;;;;;;10.50;7.80;;;;;;;13.44;72.13;100681.57;108657;1264;138039;-62
2024/04/14 02:08:37;;;;;;;11.50;8.20;;;;;;;13.41;72.06;100672.91;108808;1260;73773;-62
2024/04/14 02:11:03;;;;;;;10.10;7.20;;;;;;;13.40;72.02;100673.24;108681;1260;139053;-62
2024/04/14 02:13:30;;;;;;;11.70;7.60;;;;;;;13.37;72.04;100663.52;108795;1260;60378;-62
2024/04/14 02:15:56;;;;;;;11.40;7.70;;;;;;;13.38;72.22;100654.02;108771;1260;75878;-63
2024/04/14 02:18:23;;;;;;;8.50;7.10;;;;;;;13.39;72.16;100641.85;108716;1260;139438;-63
2024/04/14 02:20:50;;;;;;;10.30;7.20;;;;;;;13.41;72.21;100632.55;108865;1260;59814;-63
2024/04/14 02:23:17;;;;;;;8.80;7.00;;;;;;;13.42;72.27;100620.56;108576;1266;139563;-64
2024/04/14 02:25:53;;;;;;;14.00;7.20;;;;;;;13.44;72.25;100610.36;108827;1260;60732;-63
2024/04/14 02:28:20;;;;;;;9.10;7.10;;;;;;;13.43;72.17;100601.89;108795;1260;75608;-62
2024/04/14 02:30:46;;;;;;;11.50;7.00;;;;;;;13.42;72.25;100605.77;108522;1260;230437;-62
2024/04/14 02:33:13;;;;;;;12.60;7.30;;;;;;;13.43;72.39;100597.48;108777;1260;72082;-62
2024/04/14 02:35:40;;;;;;;11.10;7.20;;;;;;;13.45;72.32;100588.16;108711;1260;139441;-62
2024/04/14 02:38:07;;;;;;;9.40;6.60;;;;;;;13.46;72.39;100575.30;108739;1260;60111;-64
2024/04/14 02:40:33;;;;;;;10.80;6.80;;;;;;;13.49;72.41;100578.33;108796;1260;74095;-62
2024/04/14 02:43:00;;;;;;;52.40;22.80;;;;;;;13.53;72.56;100581.55;108798;1264;66522;-62
2024/04/14 02:45:29;;;;;;;83.50;33.10;;;;;;;13.55;72.60;100568.00;108776;1260;72895;-61
2024/04/14 02:47:55;;;;;;;18.40;10.90;;;;;;;13.60;72.61;100596.95;108732;1260;138491;-62
2024/04/14 02:50:22;;;;;;;14.00;7.60;;;;;;;13.66;72.90;100625.22;108811;1260;60983;-63
2024/04/14 02:52:48;;;;;;;15.50;7.80;;;;;;;13.69;73.13;100616.10;108694;1263;138957;-62
2024/04/14 02:55:15;;;;;;;13.30;7.10;;;;;;;13.71;73.38;100609.23;108769;1260;66940;-63
2024/04/14 02:57:45;;;;;;;16.80;6.50;;;;;;;13.71;73.79;100634.81;108789;1260;72471;-62
2024/04/14 03:00:13;;;;;;;9.80;5.80;;;;;;;13.74;74.30;100684.05;108690;1260;139109;-63
2024/04/14 03:02:39;;;;;;;10.60;6.10;;;;;;;13.80;74.17;100691.17;108809;1260;59830;-63
2024/04/14 03:05:06;;;;;;;10.40;6.20;;;;;;;13.82;74.10;100678.48;108673;1264;139201;-62
2024/04/14 03:07:32;;;;;;;8.50;5.70;;;;;;;13.82;74.12;100650.26;108780;1260;66225;-62
2024/04/14 03:09:59;;;;;;;11.80;6.00;;;;;;;13.85;74.29;100623.48;108761;1266;73749;-63
2024/04/14 03:12:26;;;;;;;8.50;5.40;;;;;;;13.89;74.45;100633.76;108643;1262;138829;-63
2024/04/14 03:14:53;;;;;;;8.80;5.30;;;;;;;13.94;74.59;100640.15;108825;1260;60293;-63
2024/04/14 03:17:21;;;;;;;7.60;4.80;;;;;;;13.99;74.73;100640.36;108709;1260;138621;-63
2024/04/14 03:19:54;;;;;;;7.30;5.00;;;;;;;14.03;74.70;100634.41;108828;1260;67538;-63
2024/04/14 03:22:21;;;;;;;;;;;;;;;14.07;74.68;100634.45;108788;1262;73064;-63
2024/04/14 03:24:48;;;;;;;7.80;5.40;;;;;;;14.10;74.79;100627.23;108668;1260;125069;-63
2024/04/14 03:27:15;;;;;;;8.80;4.80;;;;;;;14.13;74.81;100625.30;108792;1260;60480;-63
2024/04/14 03:29:42;;;;;;;9.50;5.90;;;;;;;14.15;74.71;100622.69;108705;1261;138666;-62
2024/04/14 03:32:09;;;;;;;6.60;4.50;;;;;;;14.16;74.70;100620.58;108691;1262;67594;-63
2024/04/14 03:34:35;;;;;;;6.50;5.40;;;;;;;14.17;74.79;100620.06;108686;1260;139488;-62
2024/04/14 03:37:02;;;;;;;11.60;5.10;;;;;;;14.18;74.71;100614.95;108772;1261;61133;-62
2024/04/14 03:39:29;;;;;;;7.70;4.80;;;;;;;14.19;74.70;100614.27;108759;1264;61406;-62
2024/04/14 03:41:56;;;;;;;7.70;5.10;;;;;;;14.20;74.67;100614.61;108569;1260;140009;-62
2024/04/14 03:44:23;;;;;;;6.80;5.00;;;;;;;14.20;74.65;100608.61;108798;1264;66697;-63
2024/04/14 03:46:49;;;;;;;12.00;5.60;;;;;;;14.19;74.55;100605.61;108664;1259;140135;-62
2024/04/14 03:49:16;;;;;;;6.50;4.80;;;;;;;14.17;74.66;100603.11;108725;1260;59682;-62
2024/04/14 03:51:42;;;;;;;19.50;10.40;;;;;;;14.15;74.65;100603.46;108766;1261;60644;-62
2024/04/14 03:54:09;;;;;;;18.20;10.10;;;;;;;14.13;74.65;100605.38;108678;1263;140109;-62
2024/04/14 03:56:35;;;;;;;23.70;10.60;;;;;;;14.09;74.79;100605.34;108504;1260;64427;-63
2024/04/14 03:59:03;;;;;;;21.50;12.30;;;;;;;14.06;74.77;100592.26;108568;1260;139461;-63
2024/04/14 04:01:29;;;;;;;20.20;12.70;;;;;;;14.02;74.90;100591.01;108681;1261;60229;-63
2024/04/14 04:03:57;;;;;;;25.80;14.10;;;;;;;14.00;75.00;100595.05;108757;1261;60069;-63
2024/04/14 04:06:23;;;;;;;16.50;9.40;;;;;;;13.97;75.10;100599.07;108698;1260;139123;-63
2024/04/14 04:08:50;;;;;;;16.20;10.00;;;;;;;13.96;75.22;100596.24;108727;1264;65425;-63
2024/04/14 04:11:17;;;;;;;13.70;7.80;;;;;;;13.97;75.32;100591.15;108548;1265;139099;-62
2024/04/14 04:13:43;;;;;;;13.90;7.50;;;;;;;13.99;75.51;100584.44;108782;1262;60207;-62
2024/04/14 04:16:10;;;;;;;15.00;7.90;;;;;;;14.02;75.63;100577.59;108770;1260;60564;-62
2024/04/14 04:18:36;;;;;;;10.70;6.30;;;;;;;14.04;75.79;100565.27;108662;1260;139582;-63
2024/04/14 04:21:06;;;;;;;10.80;6.70;;;;;;;14.08;75.77;100560.88;108828;1260;66709;-63
2024/04/14 04:23:33;;;;;;;10.20;5.80;;;;;;;14.12;75.85;100568.13;108655;1264;139478;-62
2024/04/14 04:26:00;;;;;;;9.20;5.90;;;;;;;14.15;75.89;100584.56;108760;1260;60048;-62
2024/04/14 04:28:27;;;;;;;7.80;5.80;;;;;;;14.17;75.99;100595.01;108620;1260;59860;-62
2024/04/14 04:30:54;;;;;;;8.30;5.30;;;;;;;14.23;76.06;100603.52;108635;1260;138547;-61
2024/04/14 04:33:20;;;;;;;9.00;5.30;;;;;;;14.30;76.06;100606.56;108734;1260;66323;-61
2024/04/14 04:35:54;;;;;;;7.30;5.10;;;;;;;14.37;75.99;100601.50;108635;1261;139046;-62
2024/04/14 04:38:22;;;;;;;7.70;5.10;;;;;;;14.44;75.94;100606.32;108768;1261;60742;-62
2024/04/14 04:40:49;;;;;;;5.80;4.90;;;;;;;14.50;75.93;100605.13;108677;1260;139088;-62
2024/04/14 04:43:16;;;;;;;8.20;5.40;;;;;;;14.56;75.92;100604.47;108772;1260;76940;-62
2024/04/14 04:45:42;;;;;;;22.00;10.70;;;;;;;14.61;75.90;100597.45;108788;1260;66418;-62
2024/04/14 04:48:09;;;;;;;27.50;12.90;;;;;;;14.65;75.85;100589.88;108638;1260;139967;-62
2024/04/14 04:50:36;;;;;;;19.40;9.60;;;;;;;14.68;75.85;100585.66;108771;1260;60272;-62
2024/04/14 04:53:03;;;;;;;11.00;6.70;;;;;;;14.72;75.91;100582.68;108578;1260;139183;-63
2024/04/14 04:55:29;;;;;;;7.90;5.10;;;;;;;14.77;75.98;100576.16;108774;1260;76196;-62
2024/04/14 04:57:56;;;;;;;7.10;4.80;;;;;;;14.83;75.77;100574.08;108774;1260;65173;-63
2024/04/14 05:00:22;;;;;;;7.70;4.20;;;;;;;14.89;75.64;100570.04;108683;1261;139201;-63
2024/04/14 05:02:49;;;;;;;8.70;4.40;;;;;;;14.94;75.40;100570.41;108810;1260;59688;-63
2024/04/14 05:05:15;;;;;;;5.40;3.60;;;;;;;15.02;75.24;100565.14;108641;1260;139510;-63
2024/04/14 05:07:42;;;;;;;6.70;4.30;;;;;;;15.09;75.07;100560.58;108825;1260;75644;-63
2024/04/14 05:10:09;;;;;;;7.00;4.20;;;;;;;15.16;74.87;100564.14;108755;1263;65476;-63
2024/04/14 05:12:35;;;;;;;7.00;4.20;;;;;;;15.24;74.40;100560.98;108696;1260;138378;-63
2024/04/14 05:15:04;;;;;;;8.10;4.50;;;;;;;15.32;73.92;100557.28;108811;1261;60308;-67
2024/04/14 05:17:31;;;;;;;9.50;4.80;;;;;;;15.39;73.70;100542.80;108644;1260;138549;-68
2024/04/14 05:19:58;;;;;;;9.70;4.40;;;;;;;15.46;73.56;100545.30;108705;1260;74677;-66
2024/04/14 05:22:24;;;;;;;7.20;4.50;;;;;;;15.52;73.24;100554.86;108662;1260;64633;-65
2024/04/14 05:24:51;;;;;;;6.20;4.20;;;;;;;15.56;72.94;100550.63;108582;1260;138903;-63
2024/04/14 05:27:19;;;;;;;7.20;4.50;;;;;;;15.60;72.73;100560.70;108784;1262;59685;-72
2024/04/14 05:29:46;;;;;;;5.40;4.20;;;;;;;15.67;72.65;100560.89;108679;1260;138741;-70
2024/04/14 05:32:13;;;;;;;8.10;3.90;;;;;;;15.72;72.19;100559.67;108807;1260;75313;-74
2024/04/14 05:34:39;;;;;;;6.60;3.50;;;;;;;15.79;71.67;100570.13;108505;1260;138462;-72
2024/04/14 05:37:06;;;;;;;9.60;3.80;;;;;;;15.86;71.06;100569.44;108621;1260;73985;-61
2024/04/14 05:39:32;;;;;;;8.00;3.90;;;;;;;15.94;70.77;100574.38;108778;1261;59864;-62
2024/04/14 05:41:59;;;;;;;5.30;3.60;;;;;;;16.03;70.53;100572.63;108693;1260;138216;-63
2024/04/14 05:44:26;;;;;;;9.90;3.50;;;;;;;16.10;69.95;100569.07;108753;1260;75649;-62
2024/04/14 05:46:53;;;;;;;8.00;2.60;;;;;;;16.13;69.39;100580.58;108651;1260;138517;-62
2024/04/14 05:49:20;;;;;;;10.30;2.70;;;;;;;16.12;68.18;100579.34;108769;1260;71913;-62
2024/04/14 05:51:47;;;;;;;6.80;1.90;;;;;;;16.06;67.56;100585.19;108769;1260;59844;-62
2024/04/14 05:54:13;;;;;;;5.40;1.90;;;;;;;16.02;67.40;100585.54;108727;1260;138552;-62
2024/04/14 05:56:40;;;;;;;6.50;1.90;;;;;;;16.03;67.37;100595.63;108769;1263;74651;-63
2024/04/14 05:59:07;;;;;;;7.10;2.10;;;;;;;16.09;67.35;100590.67;108665;1260;138859;-62
2024/04/14 06:01:33;;;;;;;5.60;2.00;;;;;;;16.15;67.31;100584.82;108641;1260;71589;-63
2024/04/14 06:04:00;;;;;;;6.30;2.10;;;;;;;16.23;67.23;100583.76;108759;1260;60305;-62
2024/04/14 06:06:26;;;;;;;4.50;2.40;;;;;;;16.31;66.99;100583.04;108719;1261;139298;-62
2024/04/14 06:08:54;;;;;;;6.80;2.00;;;;;;;16.37;66.69;100580.91;108751;1260;74358;-62
2024/04/14 06:11:20;;;;;;;6.50;2.20;;;;;;;16.46;66.43;100587.98;108686;1261;138669;-62
2024/04/14 06:13:47;;;;;;;4.90;2.20;;;;;;;16.58;66.19;100586.35;108700;1260;73308;-62
2024/04/14 06:16:14;;;;;;;2.60;1.50;;;;;;;16.58;65.58;100591.50;108675;1260;60031;-62
2024/04/14 06:18:40;;;;;;;6.50;3.60;;;;;;;16.55;65.39;100595.92;108702;1260;138700;-62
2024/04/14 06:21:07;;;;;;;9.00;5.50;;;;;;;16.54;64.89;100595.22;108801;1260;75522;-62
2024/04/14 06:23:34;;;;;;;5.90;4.50;;;;;;;16.47;64.78;100591.88;108665;1260;137992;-62
2024/04/14 06:26:01;;;;;;;4.70;2.80;;;;;;;16.47;64.78;100591.88;108756;1260;72725;-62
2024/04/14 06:28:28;;;;;;;6.60;4.10;;;;;;;16.47;64.60;100599.14;108729;1260;60422;-62
2024/04/14 06:30:55;;;;;;;4.90;2.90;;;;;;;16.44;64.31;100598.27;108685;1260;137728;-61
2024/04/14 06:33:22;;;;;;;6.40;3.10;;;;;;;16.45;64.34;100597.73;108748;1260;76615;-62
2024/04/14 06:35:51;;;;;;;6.00;4.20;;;;;;;16.47;64.27;100600.73;108633;1260;138222;-62
2024/04/14 06:38:17;;;;;;;6.60;3.30;;;;;;;16.49;64.22;100607.27;108731;1260;72779;-61
2024/04/14 06:40:47;;;;;;;9.70;3.10;;;;;;;16.49;64.07;100605.52;108504;1260;138762;-62
2024/04/14 06:43:15;;;;;;;4.50;2.80;;;;;;;16.56;64.20;100609.73;108811;1259;59806;-62
2024/04/14 06:45:43;;;;;;;3.90;2.40;;;;;;;16.64;63.97;100606.00;108796;1260;77197;-62
2024/04/14 06:48:10;;;;;;;6.40;3.10;;;;;;;16.67;63.79;100613.45;108725;1261;137967;-62
2024/04/14 06:50:37;;;;;;;8.10;4.00;;;;;;;16.66;63.53;100615.58;108799;1261;72832;-63
2024/04/14 06:53:04;;;;;;;8.70;3.80;;;;;;;16.56;62.80;100613.46;108639;1260;138399;-62
2024/04/14 06:55:31;;;;;;;8.60;5.70;;;;;;;16.39;63.02;100617.03;108752;1260;60693;-63
2024/04/14 06:57:58;;;;;;;9.00;4.70;;;;;;;16.31;63.19;100617.21;108776;1260;74832;-62
2024/04/14 07:00:25;;;;;;;4.70;2.90;;;;;;;16.37;63.44;100619.69;108755;1260;138370;-63
2024/04/14 07:02:51;;;;;;;7.60;3.20;;;;;;;16.52;63.41;100625.34;108734;1260;74019;-63
2024/04/14 07:05:18;;;;;;;5.00;2.60;;;;;;;16.58;62.95;100629.77;108676;1261;139022;-63
2024/04/14 07:07:46;;;;;;;9.40;3.10;;;;;;;16.58;62.75;100634.36;108779;1260;59786;-63
2024/04/14 07:10:13;;;;;;;8.50;3.60;;;;;;;16.61;62.65;100641.63;108706;1260;77134;-62
2024/04/14 07:12:39;;;;;;;12.30;3.60;;;;;;;16.60;62.38;100640.22;108766;1260;138615;-63
2024/04/14 07:15:06;;;;;;;7.50;3.30;;;;;;;16.53;62.02;100635.09;108784;1259;73751;-63
2024/04/14 07:17:33;;;;;;;5.70;3.00;;;;;;;16.53;62.01;100625.34;108683;1260;138748;-63
2024/04/14 07:19:59;;;;;;;10.00;4.30;;;;;;;16.48;62.07;100617.55;108772;1260;60601;-62
2024/04/14 07:22:26;;;;;;;9.40;3.90;;;;;;;16.36;61.50;100617.58;108677;1262;75681;-62
2024/04/14 07:24:53;;;;;;;5.80;2.90;;;;;;;16.19;61.46;100605.54;108672;1260;139231;-62
2024/04/14 07:27:19;;;;;;;6.20;2.80;;;;;;;16.05;61.25;100608.90;108812;1260;71981;-61
2024/04/14 07:29:46;;;;;;;6.10;2.80;;;;;;;15.98;61.35;100602.52;108669;1260;138604;-61
2024/04/14 07:32:12;;;;;;;5.10;3.20;;;;;;;15.97;61.48;100607.31;108732;1260;61022;-62
2024/04/14 07:34:39;;;;;;;6.70;2.90;;;;;;;15.97;61.64;100619.88;108592;1260;138154;-62
2024/04/14 07:37:07;;;;;;;6.50;2.40;;;;;;;15.97;61.67;100625.35;108777;1260;65639;-62
2024/04/14 07:39:33;;;;;;;5.70;3.00;;;;;;;16.01;61.53;100616.52;108692;1260;72791;-62
2024/04/14 07:42:04;;;;;;;7.80;2.70;;;;;;;16.03;61.23;100612.80;108555;1260;139499;-62
2024/04/14 07:44:30;;;;;;;5.10;2.50;;;;;;;16.00;60.94;100611.38;108680;1260;60533;-63
2024/04/14 07:46:57;;;;;;;6.50;3.10;;;;;;;15.95;60.67;100610.49;108666;1260;138504;-63
2024/04/14 07:49:23;;;;;;;5.90;3.40;;;;;;;15.95;60.38;100608.54;108666;1260;67537;-63
2024/04/14 07:51:50;;;;;;;6.90;2.60;;;;;;;16.13;60.51;100605.53;108768;1260;73733;-63
2024/04/14 07:54:16;;;;;;;8.20;2.20;;;;;;;16.44;60.46;100603.91;108692;1260;138079;-63
2024/04/14 07:56:43;;;;;;;8.60;2.50;;;;;;;16.68;60.05;100601.93;108790;1260;61554;-63
2024/04/14 07:59:10;;;;;;;6.20;2.30;;;;;;;16.77;59.70;100606.50;108639;1260;138209;-63
2024/04/14 08:01:36;;;;;;;5.20;2.00;;;;;;;16.80;59.18;100613.59;108778;1260;65607;-63
2024/04/14 08:04:03;;;;;;;9.10;3.00;;;;;;;16.74;58.56;100606.16;108777;1260;73937;-63
2024/04/14 08:06:30;;;;;;;6.20;1.90;;;;;;;16.67;58.07;100622.13;108692;1260;138459;-63
2024/04/14 08:08:57;;;;;;;6.30;2.10;;;;;;;16.60;58.09;100635.25;108691;1260;60186;-63
2024/04/14 08:11:25;;;;;;;5.30;2.50;;;;;;;16.58;58.22;100644.46;108651;1261;138295;-64
2024/04/14 08:13:53;;;;;;;4.10;1.80;;;;;;;16.56;57.65;100648.73;108773;1259;64903;-64
2024/04/14 08:16:20;;;;;;;4.10;1.80;;;;;;;16.54;57.42;100655.81;108747;1260;74415;-63
2024/04/14 08:18:46;;;;;;;4.90;1.80;;;;;;;16.54;56.83;100660.40;108684;1260;138783;-64
2024/04/14 08:21:15;;;;;;;7.40;1.80;;;;;;;16.42;55.41;100669.81;108751;1263;61931;-64
2024/04/14 08:23:41;;;;;;;8.60;1.80;;;;;;;16.23;54.98;100668.55;108640;1260;139261;-64
2024/04/14 08:26:08;;;;;;;7.30;2.20;;;;;;;16.10;55.15;100680.42;108812;1260;67041;-63
2024/04/14 08:28:35;;;;;;;7.10;3.00;;;;;;;16.04;55.08;100684.48;108648;1260;138714;-64
2024/04/14 08:31:01;;;;;;;10.90;4.90;;;;;;;15.95;54.65;100684.11;108813;1260;59802;-63
2024/04/14 08:33:28;;;;;;;10.00;2.90;;;;;;;15.88;54.78;100688.70;108836;1260;60406;-63
2024/04/14 08:35:54;;;;;;;7.50;3.20;;;;;;;15.83;55.04;100696.83;108670;1260;138465;-63
2024/04/14 08:38:21;;;;;;;9.60;2.40;;;;;;;15.85;55.30;100694.01;108776;1260;67454;-63
2024/04/14 08:40:54;;;;;;;11.20;2.30;;;;;;;15.86;54.94;100694.17;108676;1260;139754;-63
2024/04/14 08:43:20;;;;;;;8.10;2.50;;;;;;;15.78;54.42;100699.30;108799;1260;59990;-62
2024/04/14 08:45:47;;;;;;;7.80;2.40;;;;;;;15.56;53.53;100696.35;108757;1260;61416;-63
2024/04/14 08:48:14;;;;;;;8.30;2.40;;;;;;;15.32;53.72;100699.79;108537;1260;138208;-63
2024/04/14 08:50:41;;;;;;;6.90;2.00;;;;;;;15.16;53.67;100704.66;108788;1260;65865;-63
2024/04/14 08:53:07;;;;;;;7.50;1.80;;;;;;;15.05;53.64;100706.00;108594;1260;138344;-62
2024/04/14 08:55:38;;;;;;;8.40;2.10;;;;;;;14.94;53.37;100709.13;108643;1260;59815;-64
2024/04/14 08:58:14;;;;;;;9.80;2.10;;;;;;;14.84;53.29;100706.23;108558;1260;60366;-62
2024/04/14 09:00:42;;;;;;;5.00;1.70;;;;;;;14.79;53.40;100711.50;108671;1260;139634;-62
2024/04/14 09:03:09;;;;;;;5.10;1.70;;;;;;;14.76;52.90;100716.42;108785;1260;64739;-62
2024/04/14 09:05:35;;;;;;;4.30;1.80;;;;;;;14.65;51.73;100723.59;108551;1260;138935;-63
2024/04/14 09:08:03;;;;;;;5.70;1.50;;;;;;;14.58;51.67;100720.34;108642;1260;60306;-62
2024/04/14 09:10:29;;;;;;;13.40;2.30;;;;;;;14.59;51.95;100721.23;108696;1260;60058;-62
2024/04/14 09:12:56;;;;;;;9.00;1.80;;;;;;;14.64;51.45;100726.91;108664;1260;138149;-62
2024/04/14 09:15:22;;;;;;;5.00;1.70;;;;;;;14.63;50.51;100725.50;108730;1259;64857;-62
2024/04/14 09:17:49;;;;;;;9.20;1.90;;;;;;;14.60;49.91;100736.27;108679;1259;138701;-62
2024/04/14 09:20:15;;;;;;;9.30;4.30;;;;;;;14.57;49.86;100741.89;108675;1260;60410;-64
2024/04/14 09:22:44;;;;;;;5.10;2.50;;;;;;;14.57;49.47;100745.41;108691;1259;138194;-62
2024/04/14 09:25:12;;;;;;;11.40;4.10;;;;;;;14.59;49.47;100733.42;108742;1260;74813;-62
2024/04/14 09:27:38;;;;;;;6.50;2.30;;;;;;;14.64;49.06;100735.05;108835;1259;65752;-62
2024/04/14 09:30:14;;;;;;;6.70;1.80;;;;;;;14.70;49.23;100732.97;108589;1260;138534;-62
2024/04/14 09:32:41;;;;;;;10.00;2.30;;;;;;;14.84;48.87;100735.73;108775;1260;59843;-61
2024/04/14 09:35:09;;;;;;;6.20;2.00;;;;;;;14.93;48.78;100730.67;108718;1260;138476;-61
2024/04/14 09:37:38;;;;;;;7.60;1.60;;;;;;;15.01;48.73;100737.08;108788;1259;76911;-62
2024/04/14 09:40:06;;;;;;;7.80;2.00;;;;;;;15.02;47.74;100744.34;108822;1260;67380;-63
2024/04/14 09:42:33;;;;;;;4.60;1.90;;;;;;;14.94;47.35;100748.70;108697;1260;138283;-63
2024/04/14 09:45:04;;;;;;;5.70;1.70;;;;;;;14.87;47.60;100748.83;108690;1260;60179;-63
2024/04/14 09:47:31;;;;;;;7.20;1.70;;;;;;;14.87;47.41;100753.41;108587;1260;138087;-63
2024/04/14 09:49:58;;;;;;;5.40;1.50;;;;;;;14.86;47.15;100753.05;108508;1260;74662;-62
2024/04/14 09:52:24;;;;;;;8.00;1.40;;;;;;;14.85;47.00;100760.12;108751;1260;65078;-62
2024/04/14 09:54:52;;;;;;;5.80;1.50;;;;;;;14.86;46.36;100762.24;108579;1258;138690;-63
2024/04/14 09:57:21;;;;;;;8.40;1.70;;;;;;;14.85;46.25;100768.95;108640;1260;60156;-63
2024/04/14 09:59:47;;;;;;;5.80;1.60;;;;;;;14.85;45.39;100762.24;108455;1260;138958;-62
2024/04/14 10:02:27;;;;;;;8.80;1.30;;;;;;;14.86;45.35;100771.08;108712;1260;74404;-63
2024/04/14 10:04:54;;;;;;;11.40;2.30;;;;;;;14.91;45.22;100775.01;108458;1260;138461;-63
2024/04/14 10:07:20;;;;;;;8.40;2.40;;;;;;;14.90;44.87;100777.30;108650;1260;72545;-63
2024/04/14 10:09:50;;;;;;;5.90;1.80;;;;;;;14.91;44.56;100779.95;108729;1260;60072;-62
2024/04/14 10:12:19;;;;;;;4.70;1.40;;;;;;;14.93;44.34;100780.84;108667;1260;139233;-62
2024/04/14 10:14:49;;;;;;;7.60;1.70;;;;;;;14.91;43.95;100790.55;108801;1260;75887;-63
2024/04/14 10:17:18;;;;;;;6.20;1.30;;;;;;;14.83;43.53;100785.90;108649;1260;138756;-62
2024/04/14 10:19:55;;;;;;;8.20;1.20;;;;;;;14.77;42.77;100801.75;108772;1259;73846;-63
2024/04/14 10:22:21;;;;;;;8.70;1.40;;;;;;;14.70;42.67;100801.86;108679;1266;59837;-63
2024/04/14 10:24:48;;;;;;;4.40;1.20;;;;;;;14.67;42.63;100808.20;108608;1260;138157;-63
2024/04/14 10:27:15;;;;;;;5.10;1.70;;;;;;;14.60;42.37;100814.48;108751;1260;75479;-63
2024/04/14 10:29:44;;;;;;;5.50;1.20;;;;;;;14.53;41.92;100816.49;108587;1260;138789;-62
2024/04/14 10:32:12;;;;;;;11.10;4.20;;;;;;;14.46;41.90;100819.44;108783;1260;74108;-63
2024/04/14 10:34:39;;;;;;;40.90;4.20;;;;;;;14.40;41.63;100828.56;108672;1260;60172;-63
2024/04/14 10:37:06;;;;;;;3.80;1.50;;;;;;;14.32;41.44;100831.84;108817;1260;60754;-62
2024/04/14 10:39:33;;;;;;;6.20;2.10;;;;;;;14.27;41.63;100836.70;108751;1260;76463;-66
2024/04/14 10:41:59;;;;;;;7.70;2.30;;;;;;;14.22;41.45;100829.77;108553;1260;139271;-67
2024/04/14 10:44:26;;;;;;;4.60;1.30;;;;;;;14.17;41.57;100835.38;108760;1260;73136;-66
2024/04/14 10:46:53;;;;;;;7.10;1.90;;;;;;;14.15;41.35;100837.98;108610;1260;139572;-67
2024/04/14 10:49:19;;;;;;;5.10;1.70;;;;;;;14.12;41.41;100840.60;108661;1260;61211;-65
2024/04/14 10:51:46;;;;;;;4.30;1.40;;;;;;;14.10;41.21;100835.98;108772;1259;74511;-64
2024/04/14 10:54:12;;;;;;;7.60;2.30;;;;;;;14.07;41.43;100837.71;108686;1260;138611;-65
2024/04/14 10:56:39;;;;;;;5.20;1.20;;;;;;;14.09;42.25;100835.79;108770;1260;72184;-65
2024/04/14 10:59:05;;;;;;;6.50;1.50;;;;;;;14.19;42.31;100843.15;108690;1260;138567;-64
2024/04/14 11:01:33;;;;;;;4.70;1.80;;;;;;;14.28;42.42;100843.95;108789;1259;60684;-66
2024/04/14 11:03:59;;;;;;;7.70;1.40;;;;;;;14.33;42.11;100844.02;108647;1261;74976;-65
2024/04/14 11:06:26;;;;;;;5.70;1.90;;;;;;;14.37;42.23;100850.77;108688;1260;137982;-66
2024/04/14 11:08:52;;;;;;;6.10;1.90;;;;;;;14.38;42.22;100846.02;108805;1260;72902;-65